Sunday, March 24, 2019, 7:34 PM EDT
Back to Local

K1P1, Plymouth, Plymouth Municipal Airport

Location: Plymouth, NH, United States Lat: 43.779
Local Time: 7:34 PM EDT (23:34 GMT) Lon: -71.754
Time Zone: US/Eastern Elev: 505 ft

Show me the last for .
Show Decoded

2019-03-24 19:31 METAR K1P1 242335Z AUTO 00000KT 10SM CLR 08/M08 A2989 RMK AO2 T00771076 =
2019-03-24 19:13 METAR K1P1 242315Z AUTO 00000KT 10SM CLR 08/M08 A2989 RMK AO2 T00761077 =
2019-03-24 18:55 METAR K1P1 242255Z AUTO 00000KT 10SM CLR 08/M07 A2988 RMK AO2 T00761073 =
2019-03-24 18:32 METAR K1P1 242235Z AUTO 27007KT 10SM CLR 08/M08 A2988 RMK AO2 T00821079 =
2019-03-24 18:13 METAR K1P1 242215Z AUTO 27007KT 10SM CLR 09/M08 A2988 RMK AO2 T00851081 =
2019-03-24 17:55 METAR K1P1 242155Z AUTO 27003KT 10SM CLR 09/M08 A2988 RMK AO2 T00891084 =
2019-03-24 17:31 METAR K1P1 242135Z AUTO 28004KT 10SM CLR 09/M08 A2988 RMK AO2 T00871084 =
2019-03-24 17:14 METAR K1P1 242115Z AUTO 25009KT 10SM CLR 09/M08 A2988 RMK AO2 T00941080 =
2019-03-24 16:55 METAR K1P1 242055Z AUTO 28006G15KT 10SM CLR 09/M08 A2988 RMK AO2 T00891082 =
2019-03-24 16:32 METAR K1P1 242035Z AUTO 28009G15KT 10SM CLR 09/M08 A2988 RMK AO2 T00891085 =
2019-03-24 16:14 METAR K1P1 242015Z AUTO 27007G20KT 240V300 10SM CLR 09/M09 A2988 RMK AO2
                 T00901088 =
2019-03-24 15:55 METAR K1P1 241955Z AUTO 28008G19KT 10SM CLR 09/M09 A2989 RMK AO2 T00871090 =
2019-03-24 15:32 METAR K1P1 241935Z AUTO 29004G19KT 10SM CLR 09/M08 A2989 RMK AO2 T00901078 =
2019-03-24 15:15 METAR K1P1 241915Z AUTO 29006KT 10SM CLR 09/M08 A2989 RMK AO2 T00901078 =
2019-03-24 14:55 METAR K1P1 241855Z AUTO 27009G15KT 10SM CLR 09/M08 A2989 RMK AO2 T00891081 =
2019-03-24 14:32 METAR K1P1 241835Z AUTO 29008G14KT 10SM CLR 10/M08 A2990 RMK AO2 T00971082 =
2019-03-24 14:15 METAR K1P1 241815Z AUTO 31011G16KT 10SM CLR 10/M08 A2990 RMK AO2 T00961081 =
2019-03-24 13:55 METAR K1P1 241755Z AUTO 00000KT 10SM CLR 09/M08 A2992 RMK AO2 T00931081 10095
                 21046 =
2019-03-24 13:31 METAR K1P1 241735Z AUTO 28009KT 10SM CLR 09/M08 A2992 RMK AO2 T00901083 =
2019-03-24 13:15 METAR K1P1 241715Z AUTO 28004KT 10SM CLR 09/M08 A2994 RMK AO2 T00861082 =
2019-03-24 12:55 METAR K1P1 241655Z AUTO 00000KT 10SM CLR 08/M08 A2994 RMK AO2 T00831084 =
2019-03-24 12:31 METAR K1P1 241635Z AUTO 28004KT 10SM CLR 07/M08 A2995 RMK AO2 T00741076 =
2019-03-24 12:15 METAR K1P1 241615Z AUTO 30008KT 10SM CLR 06/M07 A2996 RMK AO2 T00641072 =
2019-03-24 11:55 METAR K1P1 241555Z AUTO 29007KT 10SM CLR 06/M08 A2997 RMK AO2 T00601078 =
2019-03-24 11:31 METAR K1P1 241535Z AUTO 30004KT 10SM CLR 05/M08 A2998 RMK AO2 T00541077 =
2019-03-24 11:15 METAR K1P1 241515Z AUTO 32006KT 10SM CLR 05/M07 A2998 RMK AO2 T00451071 =
2019-03-24 10:55 METAR K1P1 241455Z AUTO 30004KT 10SM CLR 04/M07 A2999 RMK AO2 T00411074 =
2019-03-24 10:32 METAR K1P1 241435Z AUTO 00000KT 10SM CLR 03/M07 A3000 RMK AO2 T00341073 =
2019-03-24 10:14 METAR K1P1 241415Z AUTO 00000KT 10SM CLR 03/M08 A3000 RMK AO2 T00251078 =
2019-03-24 09:55 METAR K1P1 241355Z AUTO 00000KT 10SM CLR 02/M08 A3000 RMK AO2 T00171079 =
2019-03-24 09:31 METAR K1P1 241335Z AUTO 35004KT 10SM CLR 01/M08 A3000 RMK AO2 T00101085 =
2019-03-24 09:14 METAR K1P1 241315Z AUTO 30003KT 10SM CLR 00/M09 A3000 RMK AO2 T00001087 =
2019-03-24 08:55 METAR K1P1 241255Z AUTO 00000KT 10SM CLR M01/M09 A3000 RMK AO2 T10081090 =
2019-03-24 08:31 METAR K1P1 241235Z AUTO 00000KT 10SM CLR M03/M09 A3001 RMK AO2 T10271091 =
2019-03-24 08:15 METAR K1P1 241215Z AUTO 00000KT 10SM CLR M04/M09 A3001 RMK AO2 T10401095 =
2019-03-24 07:55 METAR K1P1 241155Z AUTO 00000KT 10SM CLR M05/M10 A3001 RMK AO2 T10461097 11022
                 21059 =
2019-03-24 07:31 METAR K1P1 241135Z AUTO 00000KT 10SM CLR M05/M10 A3001 RMK AO2 T10531097 =
2019-03-24 07:15 METAR K1P1 241115Z AUTO 00000KT 10SM CLR M06/M10 A3001 RMK AO2 T10581099 =
2019-03-24 06:55 METAR K1P1 241055Z AUTO 27006KT 10SM CLR M06/M10 A3001 RMK AO2 T10581100 =
2019-03-24 06:31 METAR K1P1 241035Z AUTO 00000KT 10SM CLR M06/M10 A3000 RMK AO2 T10561100 =
2019-03-24 06:14 METAR K1P1 241015Z AUTO 28006KT 10SM CLR M05/M10 A3000 RMK AO2 T10541098 =
2019-03-24 05:55 METAR K1P1 240955Z AUTO 28007KT 10SM CLR M05/M10 A3000 RMK AO2 T10521098 =
2019-03-24 05:31 METAR K1P1 240935Z AUTO 28006KT 10SM CLR M04/M10 A3000 RMK AO2 T10441100 =
2019-03-24 05:12 METAR K1P1 240915Z AUTO 28007KT 10SM CLR M04/M10 A3000 RMK AO2 T10371102 =
2019-03-24 04:55 METAR K1P1 240855Z AUTO 28008KT 10SM CLR M04/M10 A2999 RMK AO2 T10381101 =
2019-03-24 04:31 METAR K1P1 240835Z AUTO 28008G15KT 10SM CLR M04/M10 A2999 RMK AO2 T10391101 =
2019-03-24 04:15 METAR K1P1 240815Z AUTO 28009KT 10SM CLR M04/M10 A2998 RMK AO2 T10371101 =
2019-03-24 03:55 METAR K1P1 240755Z AUTO 28008KT 10SM CLR M04/M10 A2997 RMK AO2 T10371101 =
2019-03-24 03:32 METAR K1P1 240735Z AUTO 28009KT 10SM CLR M03/M10 A2997 RMK AO2 T10351102 =
2019-03-24 03:15 METAR K1P1 240715Z AUTO 28007KT 10SM CLR M03/M10 A2997 RMK AO2 T10301105 =
2019-03-24 02:55 METAR K1P1 240655Z AUTO 28006KT 10SM CLR M02/M11 A2998 RMK AO2 T10251109 =
2019-03-24 02:32 METAR K1P1 240635Z AUTO 00000KT 10SM CLR M03/M11 A2998 RMK AO2 T10271107 =
2019-03-24 02:14 METAR K1P1 240615Z AUTO 28004KT 10SM CLR M03/M11 A2998 RMK AO2 T10281108 =
2019-03-24 01:55 METAR K1P1 240555Z AUTO 00000KT 10SM CLR M02/M11 A2997 RMK AO2 T10211111 11006
                 21021 =
2019-03-24 01:31 METAR K1P1 240535Z AUTO 28005KT 10SM CLR M01/M11 A2996 RMK AO2 T10151114 =
2019-03-24 01:14 METAR K1P1 240515Z AUTO 29008KT 10SM CLR M02/M11 A2995 RMK AO2 T10181110 =
2019-03-24 00:55 METAR K1P1 240455Z AUTO 28006G15KT 10SM CLR M01/M11 A2995 RMK AO2 T10151109 =
2019-03-24 00:35 METAR K1P1 240435Z AUTO 28007G16KT 10SM CLR M01/M11 A2995 RMK AO2 T10151110 =
2019-03-24 00:15 METAR K1P1 240415Z AUTO 28009G16KT 10SM CLR M01/M11 A2994 RMK AO2 T10121110 =
2019-03-23 23:55 METAR K1P1 240355Z AUTO 28006KT 10SM CLR M01/M11 A2994 RMK AO2 T10151107
                 400151018 =
2019-03-23 23:31 METAR K1P1 240335Z AUTO 28003KT 10SM CLR M01/M11 A2994 RMK AO2 T10151106 =
2019-03-23 23:15 METAR K1P1 240315Z AUTO 28010KT 10SM CLR M02/M10 A2994 RMK AO2 T10171104 =
2019-03-23 22:55 METAR K1P1 240255Z AUTO 29008KT 10SM CLR M02/M10 A2994 RMK AO2 T10161103 =
2019-03-23 22:32 METAR K1P1 240235Z AUTO 29009G14KT 10SM CLR M01/M10 A2994 RMK AO2 T10131105 =
2019-03-23 22:14 METAR K1P1 240215Z AUTO 30011KT 10SM CLR M01/M10 A2992 RMK AO2 T10141103 =
2019-03-23 21:55 METAR K1P1 240155Z AUTO 30010G15KT 10SM CLR M01/M10 A2992 RMK AO2 T10151098 =
2019-03-23 21:33 METAR K1P1 240135Z AUTO 30011G22KT 10SM CLR M01/M10 A2992 RMK AO2 T10081102 =
2019-03-23 21:15 METAR K1P1 240115Z AUTO 31012KT 10SM CLR M01/M10 A2992 RMK AO2 T10101099 =
2019-03-23 20:55 METAR K1P1 240055Z AUTO 29011G18KT 10SM CLR M01/M09 A2991 RMK AO2 T10091093 =
2019-03-23 20:31 METAR K1P1 240035Z AUTO 29011G24KT 10SM CLR M01/M09 A2990 RMK AO2 T10061092 =
2019-03-23 20:15 METAR K1P1 240015Z AUTO 29012G17KT 10SM CLR M01/M09 A2988 RMK AO2 T10071088 =
2019-03-23 19:55 METAR K1P1 232355Z AUTO 30011G18KT 10SM CLR M01/M09 A2987 RMK AO2 T10061089
                 10012 21006 =

Support USWX by starting your Amazon purchase here.